Madison, Georgia
Current Conditions -  °F | °C
As of 4:55 AM on Monday 22 Dec 2014 (Local Time) from K3J7 Reporting Station
Haze Haze  
Wind Chill: 43°   Ceiling: 400
Heat Index: 43°   Visibility: 3mi
Dew Point: 43°   Wind: 0mph
Humidity: 100%   Direction: NA
Pressure: 30.02"   Gusts: NA
Location:  33.6°N, 83.47°W
Report Text: K3J7 220955Z AUTO 00000KT 3SM BR OVC004 06/06 A3002 RMK AO2
Loading
Personal Weather Stations






























Interactive Weather Map New forecast layout! Learn more

10-Day Weather Forecast

Advertisements
Track Severe Weather on mobile